| time (UTC) | temp C | wind direction | speed KPH | gust KPH | rain 1hr cm | rain 24hr cm | rain mn cm | humidity % | barometer mb |
| 20260505194106 | 13 | 94 | 3.2 | 14.5 | 0.00 | 0.61 | 0.08 | 43 | 1009.6 |
| 20260505193106 | 13 | 94 | 9.7 | 19.3 | 0.00 | 0.61 | 0.08 | 42 | 1009.8 |
| 20260505192606 | 13 | 94 | 17.7 | 17.7 | 0.00 | 0.61 | 0.08 | 44 | 1010.1 |
| 20260505192106 | 13 | 94 | 12.9 | 12.9 | 0.00 | 0.61 | 0.08 | 43 | 1010.0 |
| 20260505191106 | 13 | 94 | 3.2 | 16.1 | 0.00 | 0.61 | 0.08 | 44 | 1010.1 |
| 20260505190106 | 13 | 94 | 3.2 | 12.9 | 0.00 | 0.61 | 0.08 | 45 | 1010.0 |
| 20260505185605 | 13 | 94 | 1.6 | 9.7 | 0.00 | 0.61 | 0.08 | 45 | 1009.9 |
| 20260505184605 | 12 | 94 | 4.8 | 14.5 | 0.00 | 0.61 | 0.08 | 45 | 1010.1 |
| 20260505184105 | 12 | 94 | 6.4 | 14.5 | 0.00 | 0.61 | 0.08 | 44 | 1010.1 |
| 20260505183605 | 12 | 94 | 3.2 | 11.3 | 0.00 | 0.61 | 0.08 | 45 | 1010.3 |
| 20260505183105 | 12 | 94 | 3.2 | 14.5 | 0.00 | 0.61 | 0.08 | 45 | 1010.0 |
| 20260505182605 | 12 | 94 | 4.8 | 14.5 | 0.00 | 0.61 | 0.08 | 44 | 1010.2 |
| 20260505181105 | 13 | 94 | 8.0 | 14.5 | 0.00 | 0.61 | 0.08 | 45 | 1010.1 |
| 20260505180605 | 13 | 94 | 3.2 | 11.3 | 0.00 | 0.61 | 0.08 | 46 | 1010.2 |
| 20260505180105 | 13 | 94 | 3.2 | 11.3 | 0.00 | 0.61 | 0.08 | 47 | 1010.2 |
| 20260505175605 | 13 | 94 | 6.4 | 8.0 | 0.00 | 0.61 | 0.08 | 46 | 1010.3 |
| 20260505175105 | 12 | 94 | 3.2 | 8.0 | 0.00 | 0.61 | 0.08 | 46 | 1010.2 |
| 20260505174605 | 12 | 94 | 1.6 | 9.7 | 0.00 | 0.61 | 0.08 | 48 | 1010.1 |
| 20260505174105 | 12 | 94 | 0.0 | 11.3 | 0.00 | 0.61 | 0.08 | 45 | 1010.1 |
| 20260505173104 | 12 | 94 | 0.0 | 11.3 | 0.00 | 0.61 | 0.08 | 47 | 1010.2 |
| 20260505172604 | 12 | 94 | 8.0 | 12.9 | 0.00 | 0.61 | 0.08 | 46 | 1010.2 |
| 20260505172105 | 12 | 94 | 3.2 | 12.9 | 0.00 | 0.61 | 0.08 | 46 | 1010.2 |
| 20260505170604 | 12 | 94 | 4.8 | 19.3 | 0.00 | 0.61 | 0.08 | 47 | 1010.1 |
| 20260505165604 | 12 | 94 | 3.2 | 11.3 | 0.00 | 0.61 | 0.08 | 47 | 1010.1 |
| 20260505165104 | 12 | 94 | 4.8 | 19.3 | 0.00 | 0.61 | 0.08 | 46 | 1010.1 |
| 20260505164604 | 12 | 94 | 4.8 | 19.3 | 0.00 | 0.61 | 0.08 | 46 | 1010.1 |
| 20260505164104 | 12 | 94 | 8.0 | 14.5 | 0.00 | 0.61 | 0.08 | 48 | 1010.0 |
| 20260505163604 | 12 | 94 | 3.2 | 11.3 | 0.00 | 0.61 | 0.08 | 46 | 1010.0 |
| 20260505162604 | 12 | 94 | 8.0 | 16.1 | 0.00 | 0.61 | 0.08 | 48 | 1009.8 |
| 20260505162104 | 12 | 94 | 6.4 | 17.7 | 0.00 | 0.61 | 0.08 | 48 | 1009.8 |
| 20260505161604 | 12 | 94 | 3.2 | 19.3 | 0.00 | 0.61 | 0.08 | 47 | 1009.7 |
| 20260505161103 | 12 | 94 | 9.7 | 19.3 | 0.00 | 0.61 | 0.08 | 47 | 1009.7 |
| 20260505160604 | 12 | 94 | 4.8 | 12.9 | 0.00 | 0.61 | 0.08 | 48 | 1009.7 |
| 20260505160103 | 12 | 94 | 6.4 | 14.5 | 0.00 | 0.61 | 0.08 | 48 | 1009.5 |
| 20260505153103 | 12 | 94 | 9.7 | 17.7 | 0.00 | 0.61 | 0.08 | 46 | 1009.7 |
| 20260505152604 | 12 | 94 | 11.3 | 17.7 | 0.00 | 0.61 | 0.08 | 45 | 1009.5 |
| 20260505152103 | 12 | 94 | 3.2 | 11.3 | 0.00 | 0.61 | 0.08 | 45 | 1009.3 |
| 20260505151603 | 12 | 94 | 4.8 | 20.9 | 0.00 | 0.61 | 0.08 | 47 | 1009.4 |
| 20260505151103 | 12 | 94 | 6.4 | 20.9 | 0.00 | 0.61 | 0.08 | 45 | 1009.3 |
| 20260505150603 | 12 | 94 | 3.2 | 14.5 | 0.00 | 0.61 | 0.08 | 46 | 1009.2 |
| 20260505140602 | 10 | 94 | 0.0 | 6.4 | 0.00 | 0.61 | 0.08 | 67 | 1008.6 |
| 20260505124601 | 7 | 94 | 0.0 | 0.0 | 0.00 | 0.61 | 0.08 | 84 | 1009.6 |
| 20260505124101 | 7 | 94 | 0.0 | 0.0 | 0.03 | 0.61 | 0.08 | 84 | 1009.8 |
| 20260505123601 | 7 | 94 | 0.0 | 0.0 | 0.08 | 0.61 | 0.08 | 83 | 1009.7 |
| 20260505123101 | 7 | 94 | 0.0 | 0.0 | 0.08 | 0.61 | 0.08 | 83 | 1009.7 |
| 20260505122601 | 7 | 94 | 0.0 | 0.0 | 0.08 | 0.61 | 0.08 | 84 | 1009.9 |
| 20260505122101 | 7 | 94 | 0.0 | 0.0 | 0.08 | 0.61 | 0.08 | 83 | 1009.9 |
| 20260505121601 | 6 | 94 | 0.0 | 0.0 | 0.08 | 0.61 | 0.08 | 82 | 1009.9 |
| 20260505115601 | 7 | 94 | 0.0 | 3.2 | 0.08 | 0.61 | 0.08 | 79 | 1009.3 |
| 20260505115100 | 7 | 94 | 0.0 | 6.4 | 0.08 | 0.61 | 0.08 | 75 | 1009.2 |
| 20260505114601 | 7 | 94 | 0.0 | 12.9 | 0.08 | 0.61 | 0.08 | 74 | 1009.5 |
| 20260505114100 | 7 | 94 | 6.4 | 12.9 | 0.05 | 0.58 | 0.05 | 75 | 1009.3 |
| 20260505113601 | 7 | 94 | 0.0 | 3.2 | 0.00 | 0.53 | 0.00 | 76 | 1009.2 |
| 20260505113100 | 7 | 94 | 0.0 | 3.2 | 0.00 | 0.53 | 0.00 | 75 | 1009.2 |
| 20260505112600 | 7 | 94 | 1.6 | 3.2 | 0.00 | 0.53 | 0.00 | 76 | 1009.5 |
| 20260505111600 | 8 | 94 | 0.0 | 3.2 | 0.00 | 0.53 | 0.00 | 76 | 1009.3 |
| 20260505111100 | 8 | 94 | 0.0 | 3.2 | 0.00 | 0.53 | 0.00 | 73 | 1009.0 |
| 20260505110600 | 8 | 94 | 0.0 | 1.6 | 0.00 | 0.53 | 0.00 | 72 | 1008.2 |
| 20260505102059 | 10 | 94 | 3.2 | 9.7 | 0.00 | 0.53 | 0.00 | 60 | 1007.4 |
| 20260505101100 | 10 | 94 | 4.8 | 11.3 | 0.00 | 0.53 | 0.00 | 57 | 1007.1 |
| 20260505100559 | 10 | 94 | 8.0 | 11.3 | 0.00 | 0.53 | 0.00 | 57 | 1007.4 |
| 20260505100059 | 10 | 94 | 1.6 | 11.3 | 0.00 | 0.53 | 0.00 | 57 | 1007.3 |
| 20260505095559 | 10 | 94 | 1.6 | 12.9 | 0.00 | 0.53 | 0.00 | 57 | 1007.4 |
| 20260505095059 | 10 | 94 | 8.0 | 12.9 | 0.00 | 0.53 | 0.00 | 56 | 1007.5 |
| 20260505094558 | 10 | 94 | 4.8 | 12.9 | 0.00 | 0.53 | 0.00 | 56 | 1007.1 |
| 20260505093558 | 10 | 94 | 1.6 | 12.9 | 0.00 | 0.53 | 0.00 | 56 | 1006.9 |
| 20260505093058 | 10 | 94 | 0.0 | 11.3 | 0.00 | 0.53 | 0.00 | 55 | 1006.9 |
| 20260505092559 | 10 | 94 | 4.8 | 14.5 | 0.00 | 0.53 | 0.00 | 55 | 1006.6 |
| 20260505092059 | 10 | 94 | 4.8 | 14.5 | 0.00 | 0.53 | 0.00 | 56 | 1007.0 |
| 20260505091558 | 10 | 94 | 3.2 | 19.3 | 0.00 | 0.53 | 0.00 | 56 | 1007.8 |
| 20260505090559 | 10 | 94 | 6.4 | 12.9 | 0.00 | 0.53 | 0.00 | 57 | 1007.5 |
| 20260505085058 | 10 | 94 | 6.4 | 9.7 | 0.00 | 0.53 | 0.00 | 57 | 1006.6 |
| 20260505084558 | 10 | 94 | 1.6 | 16.1 | 0.00 | 0.53 | 0.00 | 58 | 1006.2 |
| 20260505084058 | 10 | 94 | 3.2 | 16.1 | 0.00 | 0.53 | 0.00 | 57 | 1005.9 |
| 20260505083558 | 11 | 94 | 8.0 | 12.9 | 0.00 | 0.53 | 0.00 | 57 | 1006.0 |
| 20260505083058 | 11 | 94 | 4.8 | 16.1 | 0.00 | 0.53 | 0.00 | 58 | 1006.2 |
| 20260505082558 | 11 | 94 | 6.4 | 17.7 | 0.00 | 0.53 | 0.00 | 57 | 1005.9 |
| 20260505082058 | 11 | 94 | 12.9 | 17.7 | 0.00 | 0.53 | 0.00 | 56 | 1005.9 |
| 20260505081557 | 11 | 94 | 6.4 | 16.1 | 0.00 | 0.53 | 0.00 | 57 | 1006.2 |
| 20260505081058 | 11 | 94 | 8.0 | 14.5 | 0.00 | 0.53 | 0.00 | 58 | 1006.2 |
| 20260505080557 | 11 | 94 | 8.0 | 14.5 | 0.00 | 0.53 | 0.00 | 58 | 1006.3 |
| 20260505080057 | 11 | 94 | 4.8 | 16.1 | 0.00 | 0.53 | 0.00 | 59 | 1006.6 |
| 20260505075057 | 11 | 94 | 4.8 | 20.9 | 0.00 | 0.53 | 0.00 | 60 | 1006.5 |
| 20260505074558 | 11 | 94 | 4.8 | 20.9 | 0.00 | 0.53 | 0.00 | 59 | 1006.2 |
| 20260505074057 | 11 | 94 | 4.8 | 20.9 | 0.00 | 0.53 | 0.00 | 59 | 1005.7 |
| 20260505073557 | 11 | 94 | 1.6 | 20.9 | 0.00 | 0.53 | 0.00 | 59 | 1005.6 |
| 20260505073057 | 11 | 94 | 4.8 | 11.3 | 0.00 | 0.53 | 0.00 | 59 | 1005.4 |
| 20260505072557 | 11 | 94 | 1.6 | 11.3 | 0.00 | 0.53 | 0.00 | 58 | 1005.5 |
| 20260505072057 | 11 | 94 | 3.2 | 12.9 | 0.00 | 0.53 | 0.00 | 58 | 1005.8 |
| 20260505071057 | 11 | 94 | 0.0 | 12.9 | 0.00 | 0.53 | 0.00 | 58 | 1005.9 |
| 20260505070556 | 11 | 94 | 4.8 | 12.9 | 0.00 | 0.53 | 0.00 | 57 | 1005.9 |
| 20260505070057 | 12 | 94 | 3.2 | 16.1 | 0.00 | 0.53 | 0.00 | 56 | 1005.9 |
| 20260505065056 | 12 | 94 | 4.8 | 17.7 | 0.00 | 0.53 | 0.00 | 55 | 1006.0 |
| 20260505064057 | 12 | 94 | 9.7 | 16.1 | 0.00 | 0.53 | 0.00 | 55 | 1005.6 |
| 20260505063556 | 12 | 94 | 6.4 | 16.1 | 0.00 | 0.53 | 0.00 | 54 | 1005.5 |
| 20260505063056 | 12 | 94 | 12.9 | 14.5 | 0.00 | 0.53 | 0.00 | 54 | 1005.3 |
| 20260505062556 | 12 | 94 | 6.4 | 17.7 | 0.00 | 0.53 | 0.00 | 54 | 1005.2 |
| 20260505061556 | 12 | 94 | 3.2 | 16.1 | 0.00 | 0.53 | 0.00 | 54 | 1004.5 |
| 20260505061056 | 12 | 94 | 3.2 | 16.1 | 0.00 | 0.53 | 0.00 | 54 | 1004.5 |
| 20260505060556 | 12 | 94 | 4.8 | 9.7 | 0.00 | 0.53 | 0.00 | 54 | 1004.4 |
| 20260505055555 | 13 | 94 | 3.2 | 14.5 | 0.00 | 0.53 | 0.00 | 53 | 1003.8 |
| 20260505055055 | 13 | 94 | 4.8 | 11.3 | 0.00 | 0.53 | 0.00 | 53 | 1003.9 |
| 20260505054555 | 13 | 94 | 6.4 | 11.3 | 0.00 | 0.53 | 0.00 | 52 | 1003.8 |
| 20260505054055 | 13 | 94 | 1.6 | 12.9 | 0.00 | 0.53 | 0.00 | 52 | 1003.7 |
| 20260505053555 | 13 | 94 | 1.6 | 12.9 | 0.00 | 0.53 | 0.00 | 51 | 1003.7 |
| 20260505053055 | 13 | 94 | 9.7 | 11.3 | 0.00 | 0.53 | 0.00 | 51 | 1003.7 |
| 20260505052555 | 13 | 94 | 3.2 | 11.3 | 0.00 | 0.53 | 0.00 | 52 | 1003.7 |
| 20260505051555 | 13 | 94 | 6.4 | 14.5 | 0.00 | 0.53 | 0.00 | 50 | 1003.3 |
| 20260505050555 | 14 | 94 | 6.4 | 16.1 | 0.00 | 0.53 | 0.00 | 49 | 1003.1 |
| 20260505041554 | 15 | 94 | 3.2 | 8.0 | 0.00 | 0.53 | 0.53 | 54 | 1003.0 |
| 20260505041054 | 15 | 94 | 3.2 | 8.0 | 0.00 | 0.53 | 0.53 | 53 | 1003.0 |
| 20260505040554 | 15 | 94 | 8.0 | 16.1 | 0.00 | 0.53 | 0.53 | 53 | 1003.0 |
| 20260505040054 | 15 | 94 | 4.8 | 16.1 | 0.00 | 0.53 | 0.53 | 52 | 1003.0 |
| 20260505035554 | 15 | 94 | 0.0 | 12.9 | 0.00 | 0.53 | 0.53 | 52 | 1002.9 |
| 20260505034554 | 16 | 94 | 4.8 | 9.7 | 0.00 | 0.53 | 0.53 | 53 | 1002.9 |
| 20260505034054 | 16 | 94 | 6.4 | 9.7 | 0.00 | 0.53 | 0.53 | 55 | 1002.9 |
| 20260505033553 | 16 | 94 | 6.4 | 12.9 | 0.00 | 0.53 | 0.53 | 53 | 1003.0 |
| 20260505032554 | 16 | 94 | 6.4 | 11.3 | 0.00 | 0.53 | 0.53 | 55 | 1002.6 |
| 20260505032054 | 16 | 94 | 11.3 | 11.3 | 0.00 | 0.53 | 0.53 | 56 | 1002.6 |
| 20260505031053 | 16 | 94 | 0.0 | 9.7 | 0.00 | 0.53 | 0.53 | 57 | 1002.6 |
| 20260505030553 | 16 | 94 | 0.0 | 6.4 | 0.00 | 0.53 | 0.53 | 58 | 1002.6 |
| 20260505030053 | 16 | 94 | 3.2 | 8.0 | 0.00 | 0.53 | 0.53 | 60 | 1002.6 |
| 20260505025553 | 16 | 94 | 0.0 | 8.0 | 0.00 | 0.53 | 0.53 | 60 | 1002.3 |
| 20260505025053 | 16 | 94 | 0.0 | 4.8 | 0.00 | 0.53 | 0.53 | 61 | 1002.2 |
| 20260505024553 | 16 | 94 | 1.6 | 9.7 | 0.00 | 0.53 | 0.53 | 62 | 1002.1 |
| 20260505023553 | 16 | 94 | 1.6 | 12.9 | 0.00 | 0.53 | 0.53 | 70 | 1001.7 |
| 20260505022553 | 16 | 94 | 0.0 | 1.6 | 0.00 | 0.53 | 0.53 | 79 | 1001.7 |
| 20260505021552 | 16 | 94 | 0.0 | 4.8 | 0.00 | 0.53 | 0.53 | 79 | 1001.5 |
| 20260505021052 | 16 | 94 | 0.0 | 3.2 | 0.00 | 0.53 | 0.53 | 80 | 1001.4 |
| 20260505020552 | 16 | 94 | 1.6 | 4.8 | 0.00 | 0.53 | 0.53 | 79 | 1001.4 |
| 20260505020052 | 16 | 94 | 0.0 | 4.8 | 0.00 | 0.53 | 0.53 | 79 | 1001.1 |
| 20260505015553 | 16 | 94 | 0.0 | 1.6 | 0.00 | 0.53 | 0.53 | 79 | 1000.9 |
| 20260505014552 | 17 | 94 | 0.0 | 8.0 | 0.00 | 0.53 | 0.53 | 77 | 1000.7 |
| 20260505013552 | 17 | 94 | 6.4 | 12.9 | 0.00 | 0.53 | 0.53 | 76 | 1000.6 |
| 20260505013052 | 17 | 94 | 3.2 | 17.7 | 0.00 | 0.53 | 0.53 | 76 | 1000.4 |
| 20260505012052 | 17 | 94 | 11.3 | 14.5 | 0.00 | 0.53 | 0.53 | 77 | 1000.4 |
| 20260505011052 | 17 | 94 | 0.0 | 9.7 | 0.00 | 0.53 | 0.53 | 79 | 999.9 |
| 20260505010552 | 17 | 94 | 0.0 | 9.7 | 0.00 | 0.53 | 0.53 | 79 | 999.9 |
| 20260505010052 | 17 | 94 | 1.6 | 9.7 | 0.00 | 0.53 | 0.53 | 79 | 999.8 |
| 20260505005551 | 17 | 94 | 1.6 | 16.1 | 0.03 | 0.53 | 0.53 | 81 | 999.0 |
| 20260505005052 | 17 | 94 | 3.2 | 16.1 | 0.03 | 0.53 | 0.53 | 81 | 998.6 |
| 20260505004552 | 17 | 94 | 3.2 | 14.5 | 0.03 | 0.53 | 0.53 | 83 | 998.6 |
| 20260505004051 | 17 | 94 | 3.2 | 9.7 | 0.03 | 0.53 | 0.53 | 83 | 998.5 |
| 20260505002051 | 17 | 94 | 4.8 | 14.5 | 0.03 | 0.53 | 0.53 | 82 | 997.9 |
| 20260505001551 | 17 | 94 | 6.4 | 16.1 | 0.03 | 0.53 | 0.53 | 83 | 997.7 |
| 20260505001051 | 16 | 94 | 6.4 | 17.7 | 0.03 | 0.53 | 0.53 | 84 | 997.6 |
| 20260505000552 | 16 | 94 | 4.8 | 17.7 | 0.03 | 0.53 | 0.53 | 85 | 997.5 |
| 20260504234051 | 16 | 94 | 9.7 | 16.1 | 0.38 | 0.51 | 0.51 | 88 | 998.1 |
| 20260504233552 | 15 | 94 | 11.3 | 16.1 | 0.38 | 0.51 | 0.51 | 89 | 998.4 |
| 20260504233051 | 15 | 94 | 8.0 | 12.9 | 0.38 | 0.51 | 0.51 | 90 | 998.1 |
| 20260504232551 | 15 | 94 | 0.0 | 3.2 | 0.38 | 0.51 | 0.51 | 90 | 997.9 |
| 20260504232051 | 15 | 94 | 0.0 | 3.2 | 0.41 | 0.51 | 0.51 | 90 | 997.8 |
| 20260504231550 | 15 | 94 | 1.6 | 3.2 | 0.46 | 0.51 | 0.51 | 89 | 997.8 |
| 20260504231050 | 16 | 94 | 0.0 | 1.6 | 0.51 | 0.51 | 0.51 | 89 | 998.2 |
| 20260504230051 | 16 | 94 | 0.0 | 8.0 | 0.51 | 0.51 | 0.51 | 86 | 998.3 |
| 20260504225550 | 16 | 94 | 0.0 | 27.4 | 0.51 | 0.51 | 0.51 | 82 | 998.2 |
| 20260504225051 | 17 | 94 | 4.8 | 35.4 | 0.43 | 0.43 | 0.43 | 79 | 998.9 |
| 20260504224550 | 18 | 94 | 6.4 | 38.6 | 0.15 | 0.15 | 0.15 | 74 | 999.2 |
| 20260504224050 | 19 | 94 | 22.5 | 38.6 | 0.13 | 0.13 | 0.13 | 72 | 998.0 |
| 20260504223050 | 20 | 94 | 0.0 | 17.7 | 0.13 | 0.13 | 0.13 | 74 | 997.3 |
| 20260504222550 | 20 | 94 | 4.8 | 19.3 | 0.13 | 0.13 | 0.13 | 70 | 997.6 |
| 20260504222050 | 22 | 94 | 1.6 | 19.3 | 0.10 | 0.10 | 0.10 | 63 | 997.8 |
| 20260504221550 | 23 | 94 | 11.3 | 17.7 | 0.05 | 0.05 | 0.05 | 59 | 997.8 |
| 20260504221050 | 23 | 94 | 3.2 | 11.3 | 0.00 | 0.00 | 0.00 | 55 | 997.3 |
| 20260504220049 | 23 | 94 | 1.6 | 6.4 | 0.00 | 0.00 | 0.00 | 54 | 997.1 |
| 20260504215549 | 24 | 94 | 1.6 | 6.4 | 0.00 | 0.00 | 0.00 | 54 | 997.4 |
| 20260504215049 | 24 | 94 | 0.0 | 12.9 | 0.00 | 0.00 | 0.00 | 51 | 997.5 |
| 20260504214549 | 25 | 94 | 6.4 | 14.5 | 0.00 | 0.00 | 0.00 | 51 | 997.5 |
| 20260504214049 | 26 | 94 | 4.8 | 17.7 | 0.00 | 0.00 | 0.00 | 51 | 997.7 |
| 20260504213549 | 26 | 94 | 3.2 | 20.9 | 0.00 | 0.00 | 0.00 | 43 | 997.9 |
| 20260504213049 | 26 | 94 | 3.2 | 20.9 | 0.00 | 0.00 | 0.00 | 41 | 997.8 |
| 20260504212049 | 27 | 94 | 1.6 | 17.7 | 0.00 | 0.00 | 0.00 | 39 | 997.8 |
| 20260504211549 | 27 | 94 | 1.6 | 17.7 | 0.00 | 0.00 | 0.00 | 40 | 997.8 |
| 20260504211048 | 27 | 94 | 0.0 | 25.7 | 0.00 | 0.00 | 0.00 | 39 | 997.8 |
| 20260504210049 | 28 | 94 | 3.2 | 19.3 | 0.00 | 0.00 | 0.00 | 37 | 997.7 |
| 20260504204048 | 28 | 94 | 3.2 | 19.3 | 0.00 | 0.00 | 0.00 | 38 | 998.1 |
| 20260504203048 | 27 | 94 | 4.8 | 14.5 | 0.00 | 0.00 | 0.00 | 40 | 998.3 |
| 20260504202548 | 27 | 94 | 1.6 | 12.9 | 0.00 | 0.00 | 0.00 | 38 | 998.4 |
| 20260504201548 | 27 | 94 | 3.2 | 20.9 | 0.00 | 0.00 | 0.00 | 38 | 998.5 |
| 20260504201048 | 27 | 94 | 8.0 | 12.9 | 0.00 | 0.00 | 0.00 | 38 | 998.6 |
| 20260504200548 | 27 | 94 | 4.8 | 12.9 | 0.00 | 0.00 | 0.00 | 38 | 998.6 |
| 20260504200118 | 27 | 94 | 9.7 | 20.9 | 0.00 | 0.00 | 0.00 | 39 | 998.7 |
| 20260504195048 | 27 | 94 | 9.7 | 17.7 | 0.00 | 0.00 | 0.00 | 37 | 998.7 |
| 20260504194618 | 27 | 94 | 6.4 | 19.3 | 0.00 | 0.00 | 0.00 | 40 | 998.7 |